createdAt,value
2023-04-11T00:00:30.499Z,8.78
2023-04-11T00:03:00.099Z,8.82
2023-04-11T00:05:27.983Z,8.76
2023-04-11T00:07:54.526Z,8.75
2023-04-11T00:10:21.081Z,8.68
2023-04-11T00:12:47.579Z,8.69
2023-04-11T00:15:16.150Z,8.73
2023-04-11T00:17:45.652Z,8.72
2023-04-11T00:20:13.036Z,8.61
2023-04-11T00:22:39.546Z,8.56
2023-04-11T00:25:07.218Z,8.63
2023-04-11T00:27:33.671Z,8.59
2023-04-11T00:30:00.784Z,8.61
2023-04-11T00:32:27.596Z,8.54
2023-04-11T00:34:55.264Z,8.40
2023-04-11T00:37:22.119Z,8.39
2023-04-11T00:39:50.497Z,8.36
2023-04-11T00:42:17.273Z,8.28
2023-04-11T00:44:45.241Z,8.24
2023-04-11T00:47:12.364Z,8.19
2023-04-11T00:49:39.697Z,8.12
2023-04-11T00:52:08.212Z,7.95
2023-04-11T00:54:34.988Z,8.09
2023-04-11T00:57:03.466Z,8.16
2023-04-11T00:59:32.117Z,8.16
2023-04-11T01:01:59.620Z,8.03
2023-04-11T01:04:26.326Z,8.12
2023-04-11T01:07:03.877Z,8.08
2023-04-11T01:09:32.988Z,8.01
2023-04-11T01:12:01.392Z,7.93
2023-04-11T01:14:28.700Z,7.83
2023-04-11T01:16:56.728Z,7.88
2023-04-11T01:19:26.638Z,8.05
2023-04-11T01:21:55.786Z,7.88
2023-04-11T01:24:23.220Z,7.86
2023-04-11T01:26:49.849Z,8.00
2023-04-11T01:29:16.650Z,8.08
2023-04-11T01:31:43.931Z,8.03
2023-04-11T01:34:14.059Z,7.88
2023-04-11T01:36:42.369Z,7.97
2023-04-11T01:39:09.297Z,7.92
2023-04-11T01:41:36.438Z,7.85
2023-04-11T01:44:04.011Z,7.85
2023-04-11T01:46:31.221Z,7.92
2023-04-11T01:49:00.332Z,7.77
2023-04-11T01:51:27.659Z,7.79
2023-04-11T01:53:54.299Z,7.85
2023-04-11T01:56:20.847Z,7.82
2023-04-11T01:58:47.423Z,7.77
2023-04-11T02:01:18.021Z,7.82
2023-04-11T02:03:45.222Z,7.79
2023-04-11T02:06:11.964Z,7.84
2023-04-11T02:08:38.438Z,7.60
2023-04-11T02:11:05.273Z,7.72
2023-04-11T02:13:31.708Z,7.98
2023-04-11T02:16:16.040Z,7.74
2023-04-11T02:18:43.918Z,7.89
2023-04-11T02:21:10.825Z,7.86
2023-04-11T02:23:37.723Z,7.62
2023-04-11T02:26:05.771Z,7.78
2023-04-11T02:28:32.269Z,7.80
2023-04-11T02:30:58.816Z,7.75
2023-04-11T02:33:26.182Z,7.82
2023-04-11T02:35:52.655Z,7.84
2023-04-11T02:38:20.689Z,7.91
2023-04-11T02:40:47.520Z,7.94
2023-04-11T02:43:14.031Z,7.95
2023-04-11T02:45:41.309Z,7.99
2023-04-11T02:48:08.479Z,8.01
2023-04-11T02:50:41.100Z,7.99
2023-04-11T02:53:08.083Z,7.95
2023-04-11T02:55:38.058Z,8.00
2023-04-11T02:58:04.518Z,8.07
2023-04-11T03:00:31.293Z,8.00
2023-04-11T03:03:03.426Z,7.84
2023-04-11T03:05:35.576Z,7.85
2023-04-11T03:08:02.648Z,7.73
2023-04-11T03:10:31.203Z,7.82
2023-04-11T03:12:59.534Z,7.77
2023-04-11T03:15:26.821Z,7.80
2023-04-11T03:17:54.557Z,7.80
2023-04-11T03:20:22.329Z,7.75
2023-04-11T03:22:52.216Z,7.91
2023-04-11T03:25:19.867Z,7.90
2023-04-11T03:27:48.869Z,7.87
2023-04-11T03:30:15.776Z,7.80
2023-04-11T03:32:45.560Z,7.74
2023-04-11T03:35:12.136Z,7.75
2023-04-11T03:37:43.360Z,7.69
2023-04-11T03:40:10.343Z,7.68
2023-04-11T03:42:40.079Z,7.64
2023-04-11T03:45:09.841Z,7.54
2023-04-11T03:47:36.503Z,7.54
2023-04-11T03:50:05.133Z,7.56
2023-04-11T03:52:38.043Z,7.45
2023-04-11T03:55:09.961Z,7.43
2023-04-11T03:57:36.443Z,7.41
2023-04-11T04:00:05.823Z,7.31
2023-04-11T04:02:41.804Z,7.26
2023-04-11T04:05:11.710Z,7.26
2023-04-11T04:07:39.821Z,7.27
2023-04-11T04:10:13.098Z,7.28
2023-04-11T04:12:41.672Z,7.19
2023-04-11T04:15:14.858Z,7.22
2023-04-11T04:17:43.681Z,7.18
2023-04-11T04:20:17.286Z,7.14
2023-04-11T04:22:48.984Z,7.19
2023-04-11T04:25:20.172Z,7.20
2023-04-11T04:27:48.659Z,7.23
2023-04-11T04:30:15.617Z,7.33
2023-04-11T04:33:00.802Z,7.35
2023-04-11T04:35:29.676Z,7.36
2023-04-11T04:38:06.171Z,7.38
2023-04-11T04:40:44.799Z,7.26
2023-04-11T04:43:18.404Z,7.31
2023-04-11T04:46:08.524Z,7.30
2023-04-11T04:48:42.328Z,7.28
2023-04-11T04:51:08.874Z,7.32
2023-04-11T04:53:38.709Z,7.17
2023-04-11T04:56:07.316Z,7.12
2023-04-11T04:58:38.091Z,7.03
2023-04-11T05:01:09.114Z,6.95
2023-04-11T05:03:38.582Z,6.95
2023-04-11T05:06:09.664Z,6.94
2023-04-11T05:08:37.332Z,6.94
2023-04-11T05:11:06.450Z,6.93
2023-04-11T05:13:34.407Z,6.91
2023-04-11T05:16:02.581Z,7.00
2023-04-11T05:18:30.532Z,7.04
2023-04-11T05:20:57.604Z,6.98
2023-04-11T05:23:29.920Z,7.05
2023-04-11T05:25:59.928Z,7.12
2023-04-11T05:28:26.721Z,7.14
2023-04-11T05:30:53.666Z,7.29
2023-04-11T05:33:21.714Z,7.32
2023-04-11T05:35:48.211Z,7.29
2023-04-11T05:38:14.702Z,7.28
2023-04-11T05:40:41.133Z,7.24
2023-04-11T05:43:08.459Z,7.13
2023-04-11T05:45:34.985Z,7.14
2023-04-11T05:48:01.549Z,7.09
2023-04-11T05:50:28.261Z,7.04
2023-04-11T05:52:54.707Z,7.71
2023-04-11T05:55:21.138Z,7.90
2023-04-11T05:57:47.656Z,7.95
2023-04-11T06:00:16.748Z,7.99
2023-04-11T06:02:44.275Z,7.95
2023-04-11T06:05:11.876Z,8.55
2023-04-11T06:07:39.466Z,9.79
2023-04-11T06:10:09.366Z,10.41
2023-04-11T06:12:36.024Z,10.82
2023-04-11T06:15:02.773Z,10.78
2023-04-11T06:17:29.329Z,10.61
2023-04-11T06:19:55.909Z,10.15
2023-04-11T06:22:22.378Z,9.09
2023-04-11T06:24:49.013Z,8.80
2023-04-11T06:27:15.818Z,8.64
2023-04-11T06:29:45.744Z,8.59
2023-04-11T06:32:12.434Z,8.58
2023-04-11T06:34:39.509Z,8.82
2023-04-11T06:37:08.962Z,10.03
2023-04-11T06:39:36.116Z,12.16
2023-04-11T06:42:03.226Z,13.26
2023-04-11T06:44:31.985Z,14.07
2023-04-11T06:46:59.282Z,13.77
2023-04-11T06:49:28.150Z,14.36
2023-04-11T06:51:55.780Z,14.36
2023-04-11T06:54:22.824Z,12.03
2023-04-11T06:56:50.659Z,10.81
2023-04-11T06:59:19.621Z,10.87
2023-04-11T07:01:46.537Z,11.70
2023-04-11T07:04:13.153Z,12.23
2023-04-11T07:06:39.727Z,12.29
2023-04-11T07:09:06.909Z,14.52
2023-04-11T07:11:33.653Z,13.82
2023-04-11T07:14:00.532Z,15.33
2023-04-11T07:16:27.255Z,16.49
2023-04-11T07:18:54.779Z,16.87
2023-04-11T07:21:21.348Z,17.69
2023-04-11T07:23:48.388Z,18.29
2023-04-11T07:26:16.797Z,17.56
2023-04-11T07:28:45.041Z,17.57
2023-04-11T07:31:12.345Z,17.29
2023-04-11T07:33:39.168Z,16.94
2023-04-11T07:36:06.830Z,17.43
2023-04-11T07:38:34.217Z,17.12
2023-04-11T07:41:02.349Z,15.41
2023-04-11T07:43:29.408Z,15.91
2023-04-11T07:45:57.421Z,15.21
2023-04-11T07:48:25.400Z,15.50
2023-04-11T07:50:52.693Z,15.54
2023-04-11T07:53:19.236Z,13.47
2023-04-11T07:55:45.658Z,12.57
2023-04-11T07:58:12.178Z,13.79
2023-04-11T08:00:38.750Z,13.41
2023-04-11T08:03:09.920Z,11.90
2023-04-11T08:05:37.162Z,11.37
2023-04-11T08:08:04.941Z,11.25
2023-04-11T08:10:31.575Z,10.72
2023-04-11T08:13:01.127Z,11.48
2023-04-11T08:15:27.585Z,12.90
2023-04-11T08:17:57.135Z,12.82
2023-04-11T08:20:24.436Z,11.91
2023-04-11T08:22:51.090Z,11.23
2023-04-11T08:25:22.688Z,11.33
2023-04-11T08:27:50.784Z,11.00
2023-04-11T08:30:17.835Z,11.31
2023-04-11T08:32:44.669Z,10.97
2023-04-11T08:35:11.283Z,10.57
2023-04-11T08:37:37.900Z,10.54
2023-04-11T08:40:06.870Z,10.26
2023-04-11T08:42:34.238Z,10.31
2023-04-11T08:45:09.225Z,10.38
2023-04-11T08:47:39.125Z,10.60
2023-04-11T08:50:06.654Z,12.00
2023-04-11T08:52:34.021Z,11.89
2023-04-11T08:55:01.550Z,11.93
2023-04-11T08:57:33.209Z,11.15
2023-04-11T09:00:11.868Z,10.66
2023-04-11T09:03:08.536Z,11.85
2023-04-11T09:05:36.123Z,14.60
2023-04-11T09:08:04.915Z,15.77
2023-04-11T09:10:31.844Z,13.57
2023-04-11T09:12:59.125Z,13.06
2023-04-11T09:15:30.681Z,11.95
2023-04-11T09:18:00.250Z,10.75
2023-04-11T09:20:30.038Z,10.61
2023-04-11T09:22:58.805Z,11.20
2023-04-11T09:25:25.338Z,11.47
2023-04-11T09:28:07.757Z,11.63
2023-04-11T09:30:34.936Z,11.36
2023-04-11T09:33:18.422Z,10.88
2023-04-11T09:35:47.705Z,9.97
2023-04-11T09:38:14.158Z,9.48
2023-04-11T09:40:43.758Z,9.26
2023-04-11T09:43:10.257Z,9.35
2023-04-11T09:45:47.658Z,9.82
2023-04-11T09:48:22.076Z,10.41
2023-04-11T09:50:53.649Z,12.12
2023-04-11T09:53:20.686Z,14.00
2023-04-11T09:55:47.201Z,14.23
2023-04-11T09:58:14.460Z,13.20
2023-04-11T10:00:41.522Z,12.08
2023-04-11T10:03:08.134Z,11.38
2023-04-11T10:05:34.906Z,12.36
2023-04-11T10:08:17.265Z,13.62
2023-04-11T10:10:45.007Z,12.14
2023-04-11T10:13:40.343Z,13.08
2023-04-11T10:16:12.185Z,12.56
2023-04-11T10:19:00.215Z,13.68
2023-04-11T10:21:37.063Z,13.50
2023-04-11T10:24:18.267Z,14.81
2023-04-11T10:26:59.502Z,15.23
2023-04-11T10:29:40.798Z,15.81
2023-04-11T10:32:12.222Z,13.76
2023-04-11T10:34:41.881Z,12.09
2023-04-11T10:37:09.773Z,11.68
2023-04-11T10:39:51.679Z,11.48
2023-04-11T10:42:39.316Z,10.82
2023-04-11T10:45:21.777Z,10.99
2023-04-11T10:47:51.325Z,10.66
2023-04-11T10:50:41.119Z,9.68
2023-04-11T10:53:36.274Z,9.51
2023-04-11T10:56:03.213Z,11.78
2023-04-11T10:58:38.726Z,13.46
2023-04-11T11:01:25.723Z,14.44
2023-04-11T11:03:59.451Z,14.03
2023-04-11T11:06:26.476Z,13.32
2023-04-11T11:08:53.131Z,13.52
2023-04-11T11:11:19.770Z,15.11
2023-04-11T11:13:53.729Z,15.67
2023-04-11T11:16:25.636Z,17.14
2023-04-11T11:18:54.621Z,16.78
2023-04-11T11:21:27.661Z,17.70
2023-04-11T11:23:55.167Z,17.47
2023-04-11T11:26:22.161Z,17.97
2023-04-11T11:28:48.979Z,18.37
2023-04-11T11:31:15.573Z,18.07
2023-04-11T11:33:42.185Z,17.53
2023-04-11T11:36:09.495Z,17.18
2023-04-11T11:38:37.058Z,17.67
2023-04-11T11:41:04.436Z,18.56
2023-04-11T11:43:35.876Z,18.74
2023-04-11T11:46:11.365Z,19.32
2023-04-11T11:48:37.989Z,19.76
2023-04-11T11:51:04.767Z,19.66
2023-04-11T11:53:31.247Z,20.23
2023-04-11T11:55:58.132Z,20.22
2023-04-11T11:58:24.988Z,19.25
2023-04-11T12:00:52.436Z,20.04
2023-04-11T12:03:24.015Z,20.28
2023-04-11T12:05:55.170Z,20.70
2023-04-11T12:08:24.201Z,20.79
2023-04-11T12:10:51.412Z,18.90
2023-04-11T12:13:25.348Z,19.79
2023-04-11T12:15:55.587Z,20.96
2023-04-11T12:18:27.484Z,19.08
2023-04-11T12:20:54.924Z,19.90
2023-04-11T12:23:21.514Z,20.91
2023-04-11T12:25:48.119Z,20.61
2023-04-11T12:28:14.759Z,19.89
2023-04-11T12:30:41.615Z,20.19
2023-04-11T12:33:08.151Z,20.94
2023-04-11T12:35:34.843Z,21.47
2023-04-11T12:38:01.737Z,21.26
2023-04-11T12:40:29.774Z,21.13
2023-04-11T12:42:57.551Z,21.58
2023-04-11T12:45:24.818Z,19.52
2023-04-11T12:47:51.391Z,15.63
2023-04-11T12:50:18.115Z,18.49
2023-04-11T12:52:44.797Z,18.00
2023-04-11T12:55:13.192Z,17.38
2023-04-11T12:57:39.978Z,18.63
2023-04-11T13:00:08.850Z,16.99
2023-04-11T13:02:42.235Z,17.25
2023-04-11T13:05:13.908Z,16.67
2023-04-11T13:07:41.117Z,18.11
2023-04-11T13:10:09.227Z,19.65
2023-04-11T13:12:41.114Z,19.92
2023-04-11T13:15:09.809Z,20.29
2023-04-11T13:17:36.470Z,19.47
2023-04-11T13:20:07.394Z,20.00
2023-04-11T13:22:34.186Z,20.04
2023-04-11T13:25:00.663Z,19.81
2023-04-11T13:27:27.566Z,19.54
2023-04-11T13:29:54.103Z,18.64
2023-04-11T13:32:21.033Z,17.78
2023-04-11T13:34:47.618Z,16.98
2023-04-11T13:37:14.131Z,16.61
2023-04-11T13:39:40.693Z,16.01
2023-04-11T13:42:07.177Z,15.54
2023-04-11T13:44:33.669Z,15.53
2023-04-11T13:47:01.229Z,15.47
2023-04-11T13:49:27.668Z,15.27
2023-04-11T13:51:54.187Z,15.44
2023-04-11T13:54:20.666Z,15.36
2023-04-11T13:56:47.205Z,15.23
2023-04-11T13:59:13.713Z,14.78
2023-04-11T14:01:40.497Z,14.72
2023-04-11T14:04:07.357Z,14.72
2023-04-11T14:06:35.291Z,14.72
2023-04-11T14:09:01.740Z,14.61
2023-04-11T14:11:28.197Z,14.86
2023-04-11T14:13:54.962Z,15.01
2023-04-11T14:16:21.587Z,15.01
2023-04-11T14:18:48.101Z,14.28
2023-04-11T14:21:14.582Z,14.25
2023-04-11T14:23:41.382Z,13.94
2023-04-11T14:26:07.925Z,14.50
2023-04-11T14:28:34.716Z,14.77
2023-04-11T14:31:01.333Z,14.40
2023-04-11T14:33:27.876Z,14.31
2023-04-11T14:35:54.594Z,14.53
2023-04-11T14:38:21.110Z,14.59
2023-04-11T14:40:47.609Z,14.00
2023-04-11T14:43:14.024Z,14.12
2023-04-11T14:45:40.598Z,13.94
2023-04-11T14:48:07.229Z,13.74
2023-04-11T14:50:33.846Z,13.52
2023-04-11T14:53:00.939Z,13.95
2023-04-11T14:55:27.507Z,13.89
2023-04-11T14:57:56.603Z,13.67
2023-04-11T15:00:24.759Z,13.57
2023-04-11T15:02:56.489Z,13.27
2023-04-11T15:05:23.778Z,13.19
2023-04-11T15:07:51.866Z,13.13
2023-04-11T15:10:20.387Z,13.28
2023-04-11T15:12:47.086Z,13.38
2023-04-11T15:15:14.064Z,13.25
2023-04-11T15:17:43.006Z,13.11
2023-04-11T15:20:11.695Z,12.91
2023-04-11T15:22:43.666Z,12.77
2023-04-11T15:25:15.501Z,12.91
2023-04-11T15:27:42.734Z,12.94
2023-04-11T15:30:10.391Z,12.82
2023-04-11T15:32:42.023Z,12.97
2023-04-11T15:35:09.135Z,12.89
2023-04-11T15:37:35.680Z,12.92
2023-04-11T15:40:05.914Z,12.79
2023-04-11T15:42:35.342Z,12.62
2023-04-11T15:45:02.447Z,12.60
2023-04-11T15:47:29.253Z,12.62
2023-04-11T15:49:56.268Z,12.64
2023-04-11T15:52:22.926Z,12.75
2023-04-11T15:54:49.452Z,12.63
2023-04-11T15:57:18.314Z,12.57
2023-04-11T15:59:45.642Z,12.47
2023-04-11T16:02:12.490Z,12.33
2023-04-11T16:04:39.245Z,12.92
2023-04-11T16:07:06.642Z,12.81
2023-04-11T16:09:34.682Z,12.53
2023-04-11T16:12:01.740Z,12.38
2023-04-11T16:14:29.218Z,12.22
2023-04-11T16:16:57.533Z,12.22
2023-04-11T16:19:24.101Z,12.24
2023-04-11T16:21:50.936Z,12.05
2023-04-11T16:24:18.880Z,12.09
2023-04-11T16:26:45.656Z,11.99
2023-04-11T16:29:12.198Z,12.01
2023-04-11T16:31:38.713Z,11.89
2023-04-11T16:34:05.332Z,11.88
2023-04-11T16:36:32.071Z,11.92
2023-04-11T16:38:58.602Z,11.90
2023-04-11T16:41:25.347Z,11.74
2023-04-11T16:43:52.063Z,11.72
2023-04-11T16:46:18.742Z,11.74
2023-04-11T16:48:45.420Z,11.74
2023-04-11T16:51:13.154Z,11.71
2023-04-11T16:53:40.854Z,11.54
2023-04-11T16:56:07.580Z,11.54
2023-04-11T16:58:34.428Z,11.49
2023-04-11T17:01:01.807Z,11.44
2023-04-11T17:03:28.797Z,11.34
2023-04-11T17:05:55.959Z,11.34
2023-04-11T17:08:23.920Z,11.34
2023-04-11T17:10:50.497Z,11.28
2023-04-11T17:13:18.596Z,11.15
2023-04-11T17:15:45.966Z,11.14
2023-04-11T17:18:14.862Z,11.07
2023-04-11T17:20:43.417Z,11.03
2023-04-11T17:23:10.197Z,10.90
2023-04-11T17:25:36.744Z,10.95
2023-04-11T17:28:03.354Z,10.81
2023-04-11T17:30:30.928Z,10.76
2023-04-11T17:32:57.708Z,10.67
2023-04-11T17:35:24.295Z,10.69
2023-04-11T17:37:50.870Z,10.68
2023-04-11T17:40:17.587Z,10.51
2023-04-11T17:42:45.771Z,10.50
2023-04-11T17:45:17.155Z,10.47
2023-04-11T17:47:44.728Z,10.49
2023-04-11T17:50:13.282Z,10.34
2023-04-11T17:52:44.300Z,10.68
2023-04-11T17:55:12.922Z,10.78
2023-04-11T17:57:39.819Z,10.55
2023-04-11T18:00:28.170Z,10.45
2023-04-11T18:02:59.904Z,10.16
2023-04-11T18:05:29.049Z,10.03
2023-04-11T18:07:57.443Z,9.92
2023-04-11T18:10:25.874Z,9.91
2023-04-11T18:12:53.907Z,9.70
2023-04-11T18:15:21.818Z,9.41
2023-04-11T18:17:48.416Z,9.26
2023-04-11T18:20:15.427Z,9.42
2023-04-11T18:22:44.800Z,9.49
2023-04-11T18:25:11.770Z,9.35
2023-04-11T18:27:39.573Z,9.26
2023-04-11T18:30:16.229Z,9.26
2023-04-11T18:32:49.081Z,9.35
2023-04-11T18:35:17.172Z,8.99
2023-04-11T18:37:43.975Z,8.90
2023-04-11T18:40:13.856Z,9.10
2023-04-11T18:42:42.485Z,8.85
2023-04-11T18:45:11.422Z,8.96
2023-04-11T18:47:39.803Z,8.89
2023-04-11T18:50:07.291Z,8.83
2023-04-11T18:52:34.972Z,9.04
2023-04-11T18:55:01.671Z,8.77
2023-04-11T18:57:32.807Z,8.89
2023-04-11T19:02:35.365Z,8.69
2023-04-11T19:05:02.137Z,8.84
2023-04-11T19:07:28.998Z,8.89
2023-04-11T19:09:55.529Z,8.64
2023-04-11T19:12:22.005Z,8.56
2023-04-11T19:14:48.551Z,8.48
2023-04-11T19:17:15.268Z,8.47
2023-04-11T19:19:43.210Z,8.51
2023-04-11T19:22:09.720Z,8.37
2023-04-11T19:24:36.306Z,8.42
2023-04-11T19:27:02.973Z,8.50
2023-04-11T19:29:29.472Z,8.51
2023-04-11T19:31:56.000Z,8.34
2023-04-11T19:34:22.808Z,8.27
2023-04-11T19:36:49.254Z,8.22
2023-04-11T19:39:15.722Z,8.26
2023-04-11T19:41:46.370Z,8.41
2023-04-11T19:44:13.381Z,8.59
2023-04-11T19:46:40.149Z,8.60
2023-04-11T19:49:06.818Z,8.35
2023-04-11T19:51:33.423Z,8.30
2023-04-11T19:54:00.044Z,8.35
2023-04-11T19:56:26.613Z,8.27
2023-04-11T19:58:53.288Z,8.10
2023-04-11T20:01:19.937Z,8.03
2023-04-11T20:03:46.553Z,7.88
2023-04-11T20:06:13.613Z,7.87
2023-04-11T20:08:40.132Z,7.87
2023-04-11T20:11:06.658Z,7.77
2023-04-11T20:13:33.918Z,7.80
2023-04-11T20:16:04.557Z,7.71
2023-04-11T20:18:31.390Z,7.73
2023-04-11T20:20:58.258Z,7.72
2023-04-11T20:23:24.821Z,7.75
2023-04-11T20:25:51.387Z,7.73
2023-04-11T20:28:18.129Z,7.69
2023-04-11T20:30:44.680Z,7.76
2023-04-11T20:33:11.447Z,7.71
2023-04-11T20:35:38.109Z,7.61
2023-04-11T20:38:04.631Z,7.76
2023-04-11T20:40:31.190Z,7.65
2023-04-11T20:43:00.184Z,7.72
2023-04-11T20:45:27.910Z,7.82
2023-04-11T20:47:55.436Z,7.84
2023-04-11T20:50:21.929Z,7.57
2023-04-11T20:52:51.256Z,7.42
2023-04-11T20:55:18.010Z,7.36
2023-04-11T20:57:47.415Z,7.32
2023-04-11T21:00:14.335Z,7.35
2023-04-11T21:02:43.980Z,7.45
2023-04-11T21:05:11.930Z,7.51
2023-04-11T21:07:39.444Z,7.75
2023-04-11T21:10:07.419Z,7.53
2023-04-11T21:12:34.740Z,7.31
2023-04-11T21:15:02.418Z,7.22
2023-04-11T21:17:32.734Z,7.29
2023-04-11T21:20:00.218Z,7.22
2023-04-11T21:22:26.917Z,7.24
2023-04-11T21:24:53.347Z,7.21
2023-04-11T21:27:19.791Z,7.18
2023-04-11T21:29:46.209Z,7.27
2023-04-11T21:32:12.660Z,7.20
2023-04-11T21:34:39.133Z,7.24
2023-04-11T21:37:05.656Z,7.12
2023-04-11T21:39:32.112Z,7.11
2023-04-11T21:41:58.599Z,7.17
2023-04-11T21:44:25.053Z,7.12
2023-04-11T21:46:51.818Z,7.01
2023-04-11T21:49:18.448Z,6.92
2023-04-11T21:51:44.895Z,7.00
2023-04-11T21:54:11.368Z,6.97
2023-04-11T21:56:37.878Z,6.98
2023-04-11T21:59:04.321Z,7.06
2023-04-11T22:01:30.868Z,7.19
2023-04-11T22:03:58.949Z,7.09
2023-04-11T22:06:26.603Z,7.37
2023-04-11T22:08:53.115Z,7.14
2023-04-11T22:11:20.303Z,7.05
2023-04-11T22:13:46.920Z,7.06
2023-04-11T22:16:14.136Z,7.15
2023-04-11T22:18:47.039Z,7.07
2023-04-11T22:21:20.546Z,7.19
2023-04-11T22:23:54.756Z,7.29
2023-04-11T22:26:29.177Z,6.99
2023-04-11T22:28:58.314Z,7.06
2023-04-11T22:31:30.646Z,7.28
2023-04-11T22:33:57.727Z,7.27
2023-04-11T22:36:24.644Z,7.34
2023-04-11T22:38:51.110Z,7.29
2023-04-11T22:41:17.671Z,7.03
2023-04-11T22:43:44.576Z,7.05
2023-04-11T22:46:11.250Z,7.41
2023-04-11T22:48:37.831Z,7.34
2023-04-11T22:51:05.919Z,7.31
2023-04-11T22:53:34.162Z,7.41
2023-04-11T22:56:01.982Z,7.20
2023-04-11T22:58:28.490Z,7.02
2023-04-11T23:00:55.622Z,7.01
2023-04-11T23:03:22.181Z,7.16
2023-04-11T23:05:48.759Z,7.19
2023-04-11T23:08:15.262Z,7.03
2023-04-11T23:10:42.551Z,7.07
2023-04-11T23:13:09.274Z,6.99
2023-04-11T23:15:37.275Z,7.02
2023-04-11T23:18:03.881Z,7.13
2023-04-11T23:20:30.461Z,7.01
2023-04-11T23:22:58.334Z,6.98
2023-04-11T23:25:25.230Z,7.22
2023-04-11T23:27:52.546Z,7.23
2023-04-11T23:30:20.041Z,7.38
2023-04-11T23:32:47.111Z,7.31
2023-04-11T23:35:16.663Z,7.45
2023-04-11T23:37:43.381Z,7.35
2023-04-11T23:40:11.108Z,7.29
2023-04-11T23:42:38.539Z,7.16
2023-04-11T23:45:06.620Z,7.04
2023-04-11T23:47:33.709Z,6.79
2023-04-11T23:50:02.038Z,6.65
2023-04-11T23:52:29.140Z,6.66
2023-04-11T23:54:56.408Z,6.82
2023-04-11T23:57:23.416Z,6.69
2023-04-11T23:59:49.854Z,6.74
